Time;durP1;ratioP1;P1;durP2;ratioP2;P2;SDS_P1;SDS_P2;PMS_P1;PMS_P2;Temp;Humidity;BMP_temperature;BMP_pressure;BME280_temperature;BME280_humidity;BME280_pressure;Samples;Min_cycle;Max_cycle;Signal;HPM_P1;HPM_P2
2022/07/18 00:01:52;;;;;;;11.97;7.63;;;16.40;74.00;;;;;;5008481;28;20364;-67
2022/07/18 00:04:18;;;;;;;9.50;6.83;;;16.40;74.30;;;;;;5007081;28;20300;-68
2022/07/18 00:06:43;;;;;;;12.27;7.27;;;16.40;74.40;;;;;;5001460;28;20286;-67
2022/07/18 00:09:09;;;;;;;12.63;7.77;;;16.30;74.40;;;;;;5000320;28;20042;-67
2022/07/18 00:11:35;;;;;;;10.10;6.83;;;16.30;74.50;;;;;;5006654;28;20045;-67
2022/07/18 00:14:00;;;;;;;9.40;6.80;;;16.30;74.90;;;;;;5008345;28;20041;-67
2022/07/18 00:16:26;;;;;;;10.47;6.70;;;16.20;75.00;;;;;;4988210;28;20057;-67
2022/07/18 00:18:52;;;;;;;10.20;7.40;;;16.20;74.90;;;;;;5008302;28;20042;-67
2022/07/18 00:21:18;;;;;;;10.60;6.80;;;16.20;75.10;;;;;;4997251;28;20054;-67
2022/07/18 00:23:43;;;;;;;9.73;6.80;;;16.20;75.20;;;;;;4986007;28;20038;-67
2022/07/18 00:26:09;;;;;;;9.10;6.87;;;16.20;75.40;;;;;;5007947;28;20058;-67
2022/07/18 00:28:35;;;;;;;8.50;5.97;;;16.20;75.60;;;;;;4977957;28;20558;-65
2022/07/18 00:31:01;;;;;;;9.30;6.43;;;16.10;75.80;;;;;;5000498;28;20041;-66
2022/07/18 00:33:26;;;;;;;12.40;6.90;;;16.10;75.60;;;;;;5002955;28;20081;-66
2022/07/18 00:35:52;;;;;;;13.90;6.97;;;16.10;76.10;;;;;;5008186;28;20080;-66
2022/07/18 00:38:18;;;;;;;9.30;6.30;;;16.10;76.10;;;;;;4992863;28;20054;-66
2022/07/18 00:40:43;;;;;;;11.53;6.93;;;16.10;76.50;;;;;;4991716;28;20542;-66
2022/07/18 00:43:13;;;;;;;9.20;6.60;;;16.00;76.00;;;;;;4992187;28;20506;-66
2022/07/18 00:45:43;;;;;;;11.77;6.63;;;16.00;76.20;;;;;;5008531;28;20120;-66
2022/07/18 00:48:08;;;;;;;11.20;6.30;;;16.00;75.90;;;;;;5002746;28;20316;-66
2022/07/18 00:50:34;;;;;;;10.20;6.27;;;16.00;76.00;;;;;;5008152;28;20313;-66
2022/07/18 00:53:00;;;;;;;8.97;5.87;;;16.00;75.80;;;;;;4988195;28;20095;-67
2022/07/18 00:55:26;;;;;;;9.87;7.57;;;16.00;75.80;;;;;;5003514;28;20046;-67
2022/07/18 00:57:53;;;;;;;11.70;6.77;;;16.00;75.80;;;;;;5007539;28;20125;-67
2022/07/18 01:03:03;;;;;;;10.77;6.20;;;15.90;76.40;;;;;;5007297;28;20354;-67
2022/07/18 01:05:29;;;;;;;8.70;6.30;;;15.90;76.20;;;;;;5007360;28;20046;-67
2022/07/18 01:07:55;;;;;;;9.97;7.03;;;15.90;76.70;;;;;;5004727;28;20076;-67
2022/07/18 01:10:21;;;;;;;12.53;7.03;;;15.90;76.90;;;;;;5001890;28;21000;-67
2022/07/18 01:12:46;;;;;;;12.03;7.17;;;15.90;77.00;;;;;;4990716;28;20379;-68
2022/07/18 01:15:12;;;;;;;9.83;6.57;;;15.80;77.20;;;;;;5006698;28;20425;-67
2022/07/18 01:17:38;;;;;;;11.33;6.90;;;15.80;77.00;;;;;;4983241;28;20402;-67
2022/07/18 01:20:05;;;;;;;10.57;6.80;;;15.80;77.10;;;;;;5004386;28;20046;-67
2022/07/18 01:22:31;;;;;;;10.13;6.67;;;15.80;77.40;;;;;;5007828;28;20046;-67
2022/07/18 01:24:57;;;;;;;10.73;6.73;;;15.80;77.20;;;;;;5007077;28;20427;-67
2022/07/18 01:27:23;;;;;;;11.23;7.37;;;15.80;77.20;;;;;;5007215;28;20811;-67
2022/07/18 01:29:51;;;;;;;10.63;6.70;;;15.80;77.30;;;;;;5006809;28;20120;-67
2022/07/18 01:32:17;;;;;;;10.03;6.53;;;15.80;77.30;;;;;;5007921;28;20289;-67
2022/07/18 01:34:45;;;;;;;11.70;6.70;;;15.80;77.10;;;;;;4985074;28;20296;-67
2022/07/18 01:37:11;;;;;;;11.03;6.67;;;15.70;77.20;;;;;;5002983;28;20305;-67
2022/07/18 01:39:37;;;;;;;12.53;6.80;;;15.70;77.10;;;;;;5006167;28;20308;-67
2022/07/18 01:42:05;;;;;;;12.97;6.97;;;15.70;77.10;;;;;;4999688;28;20034;-67
2022/07/18 01:44:31;;;;;;;10.30;6.60;;;15.70;77.00;;;;;;5006299;28;20042;-67
2022/07/18 01:46:57;;;;;;;10.07;6.20;;;15.60;76.60;;;;;;4999330;28;20308;-67
2022/07/18 01:49:24;;;;;;;10.37;7.00;;;15.60;76.90;;;;;;4989743;28;20300;-66
2022/07/18 01:51:52;;;;;;;11.43;6.83;;;15.60;76.90;;;;;;5006126;28;20049;-66
2022/07/18 01:54:23;;;;;;;10.10;6.90;;;15.50;76.90;;;;;;5004431;28;20300;-66
2022/07/18 01:56:49;;;;;;;10.87;7.10;;;15.50;77.00;;;;;;4986591;28;20390;-66
2022/07/18 01:59:15;;;;;;;10.77;6.67;;;15.40;77.20;;;;;;5018974;28;20343;-66
2022/07/18 02:01:42;;;;;;;9.20;6.33;;;15.40;77.60;;;;;;5004680;28;20656;-66
2022/07/18 02:04:07;;;;;;;10.23;6.77;;;15.30;77.50;;;;;;4987810;28;20447;-66
2022/07/18 02:06:33;;;;;;;10.40;6.40;;;15.30;77.30;;;;;;5005469;28;20387;-66
2022/07/18 02:08:59;;;;;;;12.10;7.13;;;15.30;77.20;;;;;;5007188;28;20057;-66
2022/07/18 02:11:24;;;;;;;10.97;6.50;;;15.20;77.40;;;;;;5004831;28;20049;-66
2022/07/18 02:13:50;;;;;;;11.33;7.23;;;15.20;77.30;;;;;;5006189;28;20073;-66
2022/07/18 02:16:16;;;;;;;8.63;6.17;;;15.20;77.30;;;;;;5005825;28;20042;-66
2022/07/18 02:18:42;;;;;;;10.80;6.47;;;15.10;77.60;;;;;;4986477;28;20050;-66
2022/07/18 02:21:07;;;;;;;10.30;6.63;;;15.10;77.40;;;;;;5005885;28;20453;-66
2022/07/18 02:23:34;;;;;;;11.13;7.10;;;15.10;77.40;;;;;;4987447;28;20252;-66
2022/07/18 02:26:00;;;;;;;10.80;6.73;;;15.10;77.50;;;;;;5000171;28;20049;-66
2022/07/18 02:28:26;;;;;;;11.33;6.37;;;15.10;77.70;;;;;;5000719;28;20308;-67
2022/07/18 02:30:51;;;;;;;10.37;6.43;;;15.00;77.70;;;;;;5009101;28;20072;-67
2022/07/18 02:33:17;;;;;;;12.97;5.90;;;15.00;77.60;;;;;;5005424;28;20072;-67
2022/07/18 02:35:43;;;;;;;11.50;6.50;;;15.10;77.60;;;;;;5004814;28;20402;-67
2022/07/18 02:38:10;;;;;;;8.93;5.80;;;15.10;77.70;;;;;;4989293;28;20056;-66
2022/07/18 02:40:36;;;;;;;8.80;6.27;;;15.10;77.70;;;;;;4988845;28;20292;-66
2022/07/18 02:43:02;;;;;;;10.40;5.93;;;15.10;77.60;;;;;;4989286;28;20311;-66
2022/07/18 02:45:27;;;;;;;11.73;6.60;;;15.10;77.80;;;;;;4985198;28;20046;-66
2022/07/18 02:47:53;;;;;;;11.73;6.40;;;15.10;77.60;;;;;;4987684;28;20636;-67
2022/07/18 02:50:20;;;;;;;11.83;7.13;;;15.10;77.70;;;;;;4989357;28;20501;-67
2022/07/18 02:52:46;;;;;;;9.63;6.77;;;15.10;77.70;;;;;;5005107;28;20525;-67
2022/07/18 02:55:13;;;;;;;11.37;6.93;;;15.00;77.70;;;;;;4996608;28;20304;-67
2022/07/18 02:57:39;;;;;;;11.97;6.37;;;15.00;77.60;;;;;;5005050;28;20286;-67
2022/07/18 03:00:08;;;;;;;10.70;6.17;;;15.00;77.40;;;;;;5002038;28;20319;-67
2022/07/18 03:02:34;;;;;;;10.20;5.80;;;15.00;77.40;;;;;;5003801;28;20291;-67
2022/07/18 03:05:00;;;;;;;9.37;5.80;;;15.00;77.30;;;;;;5005234;28;20629;-67
2022/07/18 03:07:25;;;;;;;10.50;5.87;;;15.00;77.30;;;;;;5004684;28;20455;-67
2022/07/18 03:09:51;;;;;;;9.90;5.80;;;15.00;77.40;;;;;;5004512;28;20099;-67
2022/07/18 03:12:17;;;;;;;9.03;6.23;;;14.90;77.30;;;;;;5007831;28;20533;-67
2022/07/18 03:14:43;;;;;;;8.83;5.37;;;14.90;77.30;;;;;;5005260;28;20045;-67
2022/07/18 03:17:09;;;;;;;9.77;6.47;;;14.90;77.30;;;;;;5004757;28;20442;-67
2022/07/18 03:19:35;;;;;;;10.03;6.00;;;14.90;77.20;;;;;;5001589;28;20046;-67
2022/07/18 03:22:02;;;;;;;9.07;6.50;;;14.90;77.00;;;;;;5002584;28;20282;-67
2022/07/18 03:24:28;;;;;;;10.97;6.43;;;14.90;77.00;;;;;;5005928;28;20285;-67
2022/07/18 03:26:54;;;;;;;10.43;6.63;;;14.80;77.00;;;;;;5000562;28;20726;-67
2022/07/18 03:29:19;;;;;;;11.03;5.50;;;14.80;77.10;;;;;;5000272;28;20573;-67
2022/07/18 03:31:45;;;;;;;11.53;6.43;;;14.80;77.00;;;;;;5005930;28;20475;-67
2022/07/18 03:34:11;;;;;;;9.23;6.17;;;14.80;77.10;;;;;;4988129;28;20335;-67
2022/07/18 03:36:38;;;;;;;9.27;6.00;;;14.80;76.80;;;;;;5003214;28;20030;-67
2022/07/18 03:39:04;;;;;;;9.93;6.67;;;14.80;76.70;;;;;;4971567;28;20852;-67
2022/07/18 03:41:30;;;;;;;10.57;6.37;;;14.70;76.80;;;;;;5004762;28;20383;-67
2022/07/18 03:43:56;;;;;;;12.97;6.53;;;14.70;76.80;;;;;;5005408;28;20339;-67
2022/07/18 03:46:22;;;;;;;9.27;6.17;;;14.70;76.70;;;;;;4988879;28;20053;-67
2022/07/18 03:48:47;;;;;;;10.73;6.00;;;14.70;76.40;;;;;;4983666;28;20486;-67
2022/07/18 03:51:13;;;;;;;9.90;6.50;;;14.70;76.40;;;;;;5005053;28;20494;-66
2022/07/18 03:53:39;;;;;;;13.30;6.57;;;14.70;76.40;;;;;;5003241;28;20139;-67
2022/07/18 03:56:04;;;;;;;11.20;5.50;;;14.70;76.50;;;;;;4988006;28;20698;-68
2022/07/18 03:58:30;;;;;;;11.07;6.30;;;14.70;76.50;;;;;;4988132;28;20514;-67
2022/07/18 04:00:56;;;;;;;11.30;6.30;;;14.70;76.70;;;;;;5005319;28;20053;-67
2022/07/18 04:03:22;;;;;;;9.70;5.43;;;14.70;76.60;;;;;;5004166;28;20304;-67
2022/07/18 04:05:48;;;;;;;10.53;5.77;;;14.70;76.40;;;;;;5004106;28;20550;-67
2022/07/18 04:08:14;;;;;;;11.00;6.20;;;14.80;76.50;;;;;;4983101;28;20050;-67
2022/07/18 04:10:39;;;;;;;9.83;5.73;;;14.80;76.20;;;;;;4983846;28;20323;-67
2022/07/18 04:13:06;;;;;;;7.93;5.47;;;14.80;76.20;;;;;;4999411;28;20369;-67
2022/07/18 04:15:33;;;;;;;8.57;5.23;;;14.90;76.10;;;;;;5008206;28;20073;-67
2022/07/18 04:17:59;;;;;;;9.50;4.87;;;14.90;76.00;;;;;;5008028;28;21172;-67
2022/07/18 04:20:25;;;;;;;9.77;6.17;;;15.00;75.90;;;;;;5004477;28;20300;-67
2022/07/18 04:22:59;;;;;;;9.37;5.50;;;15.00;75.70;;;;;;5004405;28;20455;-67
2022/07/18 04:25:27;;;;;;;9.45;5.55;;;15.10;75.70;;;;;;5005221;28;20315;-67
2022/07/18 04:27:54;;;;;;;9.83;5.70;;;15.10;75.70;;;;;;5007999;28;20038;-67
2022/07/18 04:30:24;;;;;;;9.80;5.93;;;15.20;75.40;;;;;;4991825;28;20296;-67
2022/07/18 04:32:51;;;;;;;10.13;5.80;;;15.20;75.50;;;;;;5007898;28;20312;-67
2022/07/18 04:35:16;;;;;;;7.60;5.17;;;15.30;75.30;;;;;;5007874;28;20295;-67
2022/07/18 04:37:42;;;;;;;9.43;5.77;;;15.40;75.20;;;;;;4989732;28;20301;-67
2022/07/18 04:40:10;;;;;;;9.83;5.63;;;15.40;75.10;;;;;;5012855;28;20119;-67
2022/07/18 04:42:36;;;;;;;9.07;5.80;;;15.50;75.00;;;;;;5007024;28;20487;-67
2022/07/18 04:45:02;;;;;;;8.87;5.13;;;15.50;74.80;;;;;;4991397;28;20633;-67
2022/07/18 04:47:28;;;;;;;10.03;4.93;;;15.60;74.70;;;;;;5007482;28;20789;-67
2022/07/18 04:49:54;;;;;;;10.37;5.63;;;15.70;74.60;;;;;;5007853;28;20374;-67
2022/07/18 04:52:21;;;;;;;8.67;5.20;;;15.80;74.60;;;;;;5007103;28;20046;-67
2022/07/18 04:54:46;;;;;;;10.27;5.77;;;15.90;74.40;;;;;;5007661;28;20300;-67
2022/07/18 04:57:14;;;;;;;9.13;5.60;;;16.00;74.10;;;;;;5007090;28;20849;-67
2022/07/18 04:59:43;;;;;;;9.47;5.00;;;16.20;73.80;;;;;;5006523;28;20439;-67
2022/07/18 05:02:09;;;;;;;9.47;5.03;;;16.30;73.50;;;;;;5007444;28;20285;-67
2022/07/18 05:04:36;;;;;;;10.23;5.30;;;16.40;73.20;;;;;;5001784;28;20785;-65
2022/07/18 05:07:03;;;;;;;12.00;5.83;;;16.50;72.60;;;;;;5000489;28;20406;-66
2022/07/18 05:09:29;;;;;;;10.23;5.43;;;16.50;72.30;;;;;;5004347;28;20292;-66
2022/07/18 05:11:55;;;;;;;12.57;6.03;;;16.50;72.00;;;;;;5007393;28;20285;-66
2022/07/18 05:14:21;;;;;;;9.80;5.57;;;16.60;71.90;;;;;;5006758;28;20838;-67
2022/07/18 05:16:47;;;;;;;8.07;4.80;;;16.60;71.70;;;;;;5003713;28;20308;-66
2022/07/18 05:19:15;;;;;;;7.23;4.63;;;16.60;71.70;;;;;;4974526;28;20376;-66
2022/07/18 05:21:41;;;;;;;10.37;4.70;;;16.60;71.50;;;;;;4987898;28;20421;-66
2022/07/18 05:24:07;;;;;;;9.33;5.50;;;16.70;71.30;;;;;;5006937;28;20646;-66
2022/07/18 05:26:33;;;;;;;8.23;4.30;;;16.70;71.20;;;;;;5005913;28;20307;-66
2022/07/18 05:28:59;;;;;;;8.80;4.63;;;16.80;70.80;;;;;;5006486;28;20052;-66
2022/07/18 05:31:25;;;;;;;6.97;4.47;;;16.80;70.70;;;;;;5006444;28;20284;-66
2022/07/18 05:33:50;;;;;;;6.73;4.23;;;16.90;70.50;;;;;;4998590;28;20049;-66
2022/07/18 05:36:16;;;;;;;7.63;4.00;;;16.90;70.30;;;;;;5006497;28;20534;-66
2022/07/18 05:38:42;;;;;;;7.40;4.07;;;17.00;69.80;;;;;;5004999;28;20048;-66
2022/07/18 05:41:08;;;;;;;7.10;4.10;;;17.10;69.80;;;;;;4971203;28;20372;-66
2022/07/18 05:43:33;;;;;;;6.70;3.83;;;17.20;69.30;;;;;;4990161;28;20119;-66
2022/07/18 05:45:59;;;;;;;10.93;4.67;;;17.30;68.70;;;;;;5006753;28;20510;-66
2022/07/18 05:48:25;;;;;;;5.53;3.73;;;17.40;68.10;;;;;;5006242;28;20052;-66
2022/07/18 05:50:50;;;;;;;8.67;4.33;;;17.40;67.80;;;;;;5005038;28;20069;-66
2022/07/18 05:53:16;;;;;;;8.33;4.10;;;17.50;67.30;;;;;;4995217;28;20037;-66
2022/07/18 05:55:42;;;;;;;9.93;4.23;;;17.60;67.10;;;;;;4996006;28;20068;-66
2022/07/18 05:58:08;;;;;;;8.70;4.47;;;17.70;66.70;;;;;;4982540;28;20050;-66
2022/07/18 06:00:33;;;;;;;7.70;4.43;;;17.80;65.60;;;;;;5000635;28;20042;-65
2022/07/18 06:03:00;;;;;;;6.23;3.73;;;18.00;65.70;;;;;;4985022;28;20462;-66
2022/07/18 06:05:26;;;;;;;7.80;3.60;;;18.10;65.50;;;;;;4981325;28;20053;-66
2022/07/18 06:07:56;;;;;;;7.40;4.03;;;18.20;65.20;;;;;;5027342;28;20300;-66
2022/07/18 06:10:24;;;;;;;7.33;4.50;;;18.40;65.10;;;;;;5023330;28;20288;-66
2022/07/18 06:12:50;;;;;;;6.90;4.17;;;18.50;64.80;;;;;;5009299;28;20397;-66
2022/07/18 06:15:15;;;;;;;9.20;4.67;;;18.70;64.20;;;;;;5025710;28;20806;-66
2022/07/18 06:17:42;;;;;;;6.73;4.33;;;18.80;63.80;;;;;;5024583;28;20076;-67
2022/07/18 06:20:08;;;;;;;9.33;4.77;;;19.00;64.00;;;;;;5035419;28;20045;-67
2022/07/18 06:22:35;;;;;;;8.57;5.23;;;19.30;63.80;;;;;;5023058;28;20291;-66
2022/07/18 06:25:02;;;;;;;8.13;4.13;;;19.70;63.20;;;;;;5025378;28;20304;-66
2022/07/18 06:27:28;;;;;;;6.40;4.53;;;20.00;62.70;;;;;;5025217;28;20288;-67
2022/07/18 06:29:54;;;;;;;8.77;4.60;;;20.20;62.00;;;;;;5026688;28;20296;-67
2022/07/18 06:32:19;;;;;;;7.37;4.13;;;20.40;61.70;;;;;;5025026;28;20053;-67
2022/07/18 06:34:45;;;;;;;9.53;4.20;;;20.50;61.70;;;;;;5011781;28;20125;-67
2022/07/18 06:37:11;;;;;;;7.60;4.13;;;20.60;60.20;;;;;;5029116;28;20029;-67
2022/07/18 06:39:37;;;;;;;13.00;4.57;;;20.70;60.50;;;;;;5026268;28;20052;-67
2022/07/18 06:42:02;;;;;;;7.23;4.17;;;20.80;59.80;;;;;;5015528;28;20037;-67
2022/07/18 06:44:29;;;;;;;5.83;3.53;;;21.20;59.50;;;;;;4989383;28;20506;-67
2022/07/18 06:46:57;;;;;;;9.20;4.17;;;21.80;58.70;;;;;;4977237;28;20034;-66
2022/07/18 06:49:25;;;;;;;6.67;3.97;;;22.40;57.30;;;;;;4970051;28;20054;-66
2022/07/18 06:51:51;;;;;;;9.17;4.10;;;22.90;56.00;;;;;;4999205;28;20060;-66
2022/07/18 06:54:17;;;;;;;8.83;3.50;;;23.40;54.80;;;;;;5005520;28;20056;-66
2022/07/18 06:56:42;;;;;;;8.37;4.07;;;23.30;54.30;;;;;;4983196;28;20038;-66
2022/07/18 06:59:08;;;;;;;9.57;4.40;;;23.00;53.90;;;;;;5006220;28;20750;-66
2022/07/18 07:01:34;;;;;;;9.20;3.57;;;22.70;55.10;;;;;;5005314;28;20509;-67
2022/07/18 07:04:00;;;;;;;6.90;4.10;;;22.50;55.90;;;;;;5004439;28;20046;-65
2022/07/18 07:06:25;;;;;;;7.50;3.83;;;22.50;56.20;;;;;;5006733;28;20052;-66
2022/07/18 07:08:51;;;;;;;8.97;3.73;;;22.40;56.70;;;;;;4986910;28;20081;-67
2022/07/18 07:11:17;;;;;;;6.60;3.90;;;22.40;56.40;;;;;;5002942;28;20506;-67
2022/07/18 07:13:42;;;;;;;6.13;3.03;;;22.40;56.30;;;;;;4981031;28;20038;-67
2022/07/18 07:16:08;;;;;;;7.33;3.30;;;22.30;55.80;;;;;;4998967;28;20054;-67
2022/07/18 07:18:34;;;;;;;6.63;3.37;;;22.20;56.00;;;;;;4971207;28;20049;-66
2022/07/18 07:20:59;;;;;;;7.67;3.33;;;22.10;55.90;;;;;;5004540;28;20037;-66
2022/07/18 07:23:26;;;;;;;5.80;3.23;;;22.10;56.40;;;;;;5004290;28;20050;-66
2022/07/18 07:25:51;;;;;;;7.13;3.47;;;22.10;56.10;;;;;;4987044;28;20578;-66
2022/07/18 07:28:18;;;;;;;8.13;4.17;;;22.10;56.40;;;;;;5003522;28;20034;-66
2022/07/18 07:30:44;;;;;;;6.07;3.40;;;22.20;56.20;;;;;;4986352;28;20120;-66
2022/07/18 07:33:10;;;;;;;7.67;3.80;;;22.30;55.90;;;;;;5003359;28;20132;-66
2022/07/18 07:35:36;;;;;;;7.17;3.37;;;22.30;56.10;;;;;;4993897;28;20045;-66
2022/07/18 07:38:02;;;;;;;5.87;3.20;;;22.40;55.90;;;;;;4985164;28;20045;-66
2022/07/18 07:40:29;;;;;;;6.00;3.33;;;22.50;55.50;;;;;;5003742;28;20049;-66
2022/07/18 07:43:08;;;;;;;6.17;3.40;;;22.60;55.10;;;;;;5018061;28;20109;-67
2022/07/18 07:45:34;;;;;;;5.83;3.00;;;22.80;55.10;;;;;;5004044;28;20033;-67
2022/07/18 07:48:00;;;;;;;4.80;3.20;;;22.90;54.80;;;;;;5004100;28;20052;-67
2022/07/18 07:50:26;;;;;;;5.57;2.90;;;23.00;54.80;;;;;;5007091;28;20462;-67
2022/07/18 07:52:52;;;;;;;8.03;2.83;;;23.10;54.40;;;;;;5004217;28;20046;-67
2022/07/18 07:55:18;;;;;;;4.07;2.73;;;23.30;54.50;;;;;;5005142;28;20038;-67
2022/07/18 07:57:43;;;;;;;5.27;2.33;;;23.60;54.20;;;;;;5004777;28;20116;-67
2022/07/18 08:00:09;;;;;;;3.77;1.83;;;23.90;53.50;;;;;;5003370;28;20044;-67
2022/07/18 08:02:36;;;;;;;4.97;1.90;;;24.20;52.50;;;;;;5006045;28;20458;-67
2022/07/18 08:05:02;;;;;;;3.53;1.90;;;24.40;52.10;;;;;;4988645;28;20044;-67
2022/07/18 08:07:28;;;;;;;6.97;2.17;;;24.60;51.30;;;;;;5006128;28;20056;-67
2022/07/18 08:09:54;;;;;;;5.07;1.40;;;24.70;50.30;;;;;;5005717;28;20453;-67
2022/07/18 08:12:19;;;;;;;3.53;1.37;;;24.80;49.10;;;;;;5001485;28;20050;-66
2022/07/18 08:14:45;;;;;;;4.63;1.80;;;25.00;49.00;;;;;;5005683;28;20546;-67
2022/07/18 08:17:11;;;;;;;3.53;1.20;;;25.10;49.30;;;;;;5005022;28;20084;-67
2022/07/18 08:19:36;;;;;;;6.17;1.23;;;25.40;48.60;;;;;;4970271;28;20046;-67
2022/07/18 08:22:02;;;;;;;5.43;1.30;;;25.50;46.90;;;;;;4983368;28;20120;-66
2022/07/18 08:24:27;;;;;;;4.93;1.20;;;25.70;46.00;;;;;;4990080;28;20038;-66
2022/07/18 08:26:53;;;;;;;3.30;1.40;;;25.80;45.90;;;;;;5006406;28;20034;-66
2022/07/18 08:29:19;;;;;;;3.50;1.20;;;25.90;45.50;;;;;;5005810;28;20052;-66
2022/07/18 08:31:44;;;;;;;4.73;1.40;;;25.90;45.80;;;;;;5006068;28;20049;-66
2022/07/18 08:34:10;;;;;;;6.20;1.73;;;25.90;46.00;;;;;;5005895;28;20050;-66
2022/07/18 08:36:36;;;;;;;4.60;1.50;;;25.80;46.10;;;;;;5000334;28;20049;-67
2022/07/18 08:39:02;;;;;;;3.80;1.53;;;25.80;46.60;;;;;;5005833;28;20454;-67
2022/07/18 08:41:28;;;;;;;3.10;1.40;;;25.80;46.60;;;;;;4974104;28;20818;-67
2022/07/18 08:43:55;;;;;;;4.90;1.50;;;25.90;46.80;;;;;;5004653;28;20564;-67
2022/07/18 08:46:21;;;;;;;6.57;1.90;;;26.10;46.50;;;;;;4974290;28;20506;-67
2022/07/18 08:48:51;;;;;;;4.40;1.27;;;26.10;46.00;;;;;;5005069;28;20088;-68
2022/07/18 08:51:18;;;;;;;3.50;1.20;;;26.20;45.70;;;;;;5021166;28;20505;-68
2022/07/18 08:53:46;;;;;;;5.17;1.30;;;26.10;44.90;;;;;;4981512;28;20057;-67
2022/07/18 08:56:12;;;;;;;3.63;1.20;;;26.30;45.40;;;;;;5002207;28;20046;-67
2022/07/18 08:58:38;;;;;;;5.27;1.33;;;26.40;45.10;;;;;;4991282;28;20042;-68
2022/07/18 09:01:03;;;;;;;2.63;1.10;;;26.40;43.50;;;;;;4991593;28;20461;-68
2022/07/18 09:03:29;;;;;;;2.77;1.30;;;26.40;43.60;;;;;;4992008;28;20046;-68
2022/07/18 09:06:12;;;;;;;4.10;1.20;;;26.50;43.30;;;;;;4995981;28;20097;-69
2022/07/18 09:08:40;;;;;;;6.83;1.40;;;26.60;42.70;;;;;;5003144;28;20642;-68
2022/07/18 09:11:11;;;;;;;4.97;1.20;;;26.80;43.70;;;;;;4994683;28;20049;-68
2022/07/18 09:13:39;;;;;;;7.53;1.37;;;27.00;43.10;;;;;;4992485;28;20475;-68
2022/07/18 09:16:10;;;;;;;3.60;1.10;;;27.20;43.40;;;;;;4995978;28;20046;-68
2022/07/18 09:18:47;;;;;;;5.73;1.40;;;27.30;42.50;;;;;;4987839;28;20041;-69
2022/07/18 09:21:17;;;;;;;3.37;1.50;;;27.30;42.50;;;;;;5004171;28;20494;-68
2022/07/18 09:23:48;;;;;;;17.23;1.80;;;27.40;42.60;;;;;;5004264;28;20045;-68
2022/07/18 09:26:36;;;;;;;3.90;1.30;;;27.50;42.70;;;;;;4985952;28;20125;-69
2022/07/18 09:29:02;;;;;;;4.50;1.27;;;27.60;41.40;;;;;;4996198;28;20759;-69
2022/07/18 09:31:28;;;;;;;3.57;1.40;;;27.70;42.40;;;;;;5010522;28;20041;-69
2022/07/18 09:33:59;;;;;;;4.37;1.23;;;27.80;42.50;;;;;;4997183;28;20557;-68
2022/07/18 09:36:26;;;;;;;3.47;1.20;;;27.90;42.40;;;;;;4987486;28;20042;-68
2022/07/18 09:38:52;;;;;;;4.43;1.00;;;27.90;42.10;;;;;;4999663;28;20053;-68
2022/07/18 09:41:23;;;;;;;4.97;1.20;;;28.10;40.80;;;;;;5000742;28;20069;-69
2022/07/18 09:43:50;;;;;;;3.77;1.20;;;28.20;40.40;;;;;;4983516;28;20501;-69
2022/07/18 09:46:15;;;;;;;5.83;1.70;;;28.40;41.00;;;;;;4986558;28;20084;-69
2022/07/18 09:48:41;;;;;;;3.57;1.60;;;28.50;41.10;;;;;;4987278;28;20092;-69
2022/07/18 09:51:07;;;;;;;3.70;1.50;;;28.60;41.00;;;;;;5003240;28;20136;-69
2022/07/18 09:53:44;;;;;;;4.33;1.57;;;28.70;40.60;;;;;;5003406;28;20037;-69
2022/07/18 09:56:10;;;;;;;6.23;1.20;;;28.80;40.30;;;;;;4983557;28;20777;-69
2022/07/18 09:58:42;;;;;;;5.00;1.20;;;28.70;40.00;;;;;;5014754;28;20434;-68
2022/07/18 10:01:10;;;;;;;3.57;1.23;;;28.60;40.10;;;;;;4998767;28;20038;-69
2022/07/18 10:03:36;;;;;;;3.67;1.33;;;28.60;39.90;;;;;;4977371;28;20038;-69
2022/07/18 10:06:03;;;;;;;3.30;1.30;;;28.60;40.40;;;;;;4997150;28;20391;-69
2022/07/18 10:08:33;;;;;;;3.93;1.50;;;28.20;40.70;;;;;;4997268;28;20061;-69
2022/07/18 10:11:00;;;;;;;4.90;1.30;;;28.20;40.60;;;;;;4998018;28;20042;-69
2022/07/18 10:13:28;;;;;;;4.63;1.30;;;28.10;41.10;;;;;;5000322;28;20049;-68
2022/07/18 10:15:55;;;;;;;3.80;1.40;;;28.00;41.40;;;;;;5005006;28;20528;-67
2022/07/18 10:18:27;;;;;;;2.07;1.03;;;28.00;41.50;;;;;;5021069;28;20639;-67
2022/07/18 10:20:59;;;;;;;5.10;1.30;;;28.10;41.30;;;;;;5003905;28;20512;-67
2022/07/18 10:23:44;;;;;;;3.47;1.10;;;28.20;42.00;;;;;;5000246;28;20050;-68
2022/07/18 10:26:16;;;;;;;4.10;1.23;;;28.30;40.80;;;;;;5004336;28;20488;-68
2022/07/18 10:28:59;;;;;;;3.20;1.17;;;28.40;40.20;;;;;;5018705;28;20048;-67
2022/07/18 10:31:29;;;;;;;3.30;1.20;;;28.50;39.30;;;;;;5004279;28;20042;-67
2022/07/18 10:34:07;;;;;;;2.67;0.90;;;28.50;40.20;;;;;;5003399;28;20076;-67
2022/07/18 10:36:34;;;;;;;5.13;1.20;;;28.70;39.80;;;;;;5003210;28;20045;-68
2022/07/18 10:39:07;;;;;;;3.03;1.23;;;28.90;40.40;;;;;;4985896;28;20046;-68
2022/07/18 10:41:39;;;;;;;4.90;1.83;;;29.10;39.70;;;;;;5002302;28;20092;-68
2022/07/18 10:44:34;;;;;;;3.67;1.10;;;29.30;39.10;;;;;;5002985;28;20056;-67
2022/07/18 10:47:03;;;;;;;;;;;29.40;38.50;;;;;;4985483;28;20046;-67
2022/07/18 10:49:47;;;;;;;3.20;1.17;;;29.50;38.50;;;;;;5002299;28;20351;-67
2022/07/18 10:52:33;;;;;;;4.43;1.40;;;29.50;38.60;;;;;;5002140;28;20050;-68
2022/07/18 10:55:05;;;;;;;4.40;1.50;;;29.50;37.90;;;;;;5000865;28;20595;-68
2022/07/18 10:57:43;;;;;;;7.50;2.00;;;29.60;38.80;;;;;;4999256;28;20050;-68
2022/07/18 11:00:12;;;;;;;2.93;1.20;;;29.50;38.90;;;;;;4995808;28;20049;-68
2022/07/18 11:02:41;;;;;;;4.17;1.07;;;29.50;39.40;;;;;;5000046;28;20046;-68
2022/07/18 11:05:25;;;;;;;2.60;1.40;;;29.60;39.50;;;;;;4995685;28;20504;-68
2022/07/18 11:08:03;;;;;;;5.45;1.52;;;29.60;37.60;;;;;;5019917;28;20049;-68
2022/07/18 11:10:42;;;;;;;2.43;1.10;;;29.60;38.40;;;;;;5011724;28;20057;-68
2022/07/18 11:13:31;;;;;;;3.57;1.30;;;29.70;37.70;;;;;;4982144;28;20120;-68
2022/07/18 11:16:19;;;;;;;2.33;1.17;;;29.80;37.80;;;;;;4932134;28;20166;-68
2022/07/18 11:18:45;;;;;;;2.17;1.20;;;29.70;37.30;;;;;;4994231;28;20124;-69
2022/07/18 11:21:28;;;;;;;5.10;1.40;;;29.70;37.90;;;;;;4994995;28;20048;-68
2022/07/18 11:24:01;;;;;;;3.20;1.20;;;29.70;38.10;;;;;;4998463;28;20531;-69
2022/07/18 11:26:28;;;;;;;5.60;1.87;;;29.80;38.80;;;;;;4977777;28;20053;-69
2022/07/18 11:28:59;;;;;;;4.27;1.67;;;29.80;38.60;;;;;;5019866;28;20052;-69
2022/07/18 11:31:26;;;;;;;2.50;1.20;;;29.80;38.40;;;;;;4993824;28;20050;-69
2022/07/18 11:33:52;;;;;;;3.50;1.40;;;30.00;38.10;;;;;;5005753;28;20899;-69
2022/07/18 11:36:21;;;;;;;3.77;1.67;;;30.30;38.60;;;;;;5008554;28;20064;-69
2022/07/18 11:39:16;;;;;;;4.00;1.30;;;30.50;38.70;;;;;;5008293;28;20560;-69
2022/07/18 11:41:42;;;;;;;2.77;1.20;;;30.70;37.70;;;;;;5004095;28;20053;-70
2022/07/18 11:44:20;;;;;;;3.00;1.03;;;30.90;36.50;;;;;;4984026;28;20099;-70
2022/07/18 11:46:45;;;;;;;2.50;1.10;;;31.00;35.00;;;;;;5014091;28;20591;-69
2022/07/18 11:49:12;;;;;;;2.80;1.00;;;31.10;35.40;;;;;;4970436;28;20044;-69
2022/07/18 11:51:43;;;;;;;2.43;1.07;;;31.00;35.20;;;;;;5018620;28;20045;-69
2022/07/18 11:54:11;;;;;;;1.97;1.27;;;30.90;34.40;;;;;;5024380;28;20115;-69
2022/07/18 11:56:48;;;;;;;3.87;1.60;;;31.00;34.70;;;;;;5025960;28;20036;-69
2022/07/18 11:59:15;;;;;;;1.77;1.03;;;31.20;34.50;;;;;;5028655;28;20037;-69
2022/07/18 12:01:41;;;;;;;3.37;1.47;;;31.20;34.40;;;;;;5001215;28;20306;-69
2022/07/18 12:04:14;;;;;;;2.80;1.40;;;31.30;35.10;;;;;;5033364;28;20052;-67
2022/07/18 12:06:40;;;;;;;3.13;1.63;;;31.20;35.10;;;;;;5023737;28;20791;-68
2022/07/18 12:09:06;;;;;;;3.53;1.40;;;31.10;34.50;;;;;;5010788;28;20053;-68
2022/07/18 12:11:36;;;;;;;2.10;1.33;;;30.90;35.30;;;;;;5022270;28;20053;-68
2022/07/18 12:14:14;;;;;;;4.03;1.27;;;30.70;35.50;;;;;;5024389;28;20045;-68
2022/07/18 12:16:46;;;;;;;4.00;1.70;;;30.60;35.50;;;;;;5028270;28;20071;-68
2022/07/18 12:19:24;;;;;;;3.63;1.80;;;30.10;35.50;;;;;;5024381;28;20052;-68
2022/07/18 12:22:03;;;;;;;3.63;1.43;;;29.90;36.60;;;;;;5040542;28;20040;-68
2022/07/18 12:24:38;;;;;;;3.60;1.40;;;29.80;35.90;;;;;;5024793;28;20048;-68
2022/07/18 12:27:24;;;;;;;2.77;1.37;;;29.60;36.60;;;;;;5026840;28;20528;-68
2022/07/18 12:30:14;;;;;;;1.70;1.00;;;29.70;37.30;;;;;;5027112;28;20055;-68
2022/07/18 12:32:52;;;;;;;3.37;1.40;;;30.10;36.40;;;;;;5021483;28;20401;-68
2022/07/18 12:35:35;;;;;;;2.80;0.93;;;30.30;36.30;;;;;;4997007;28;20049;-68
2022/07/18 12:38:02;;;;;;;3.07;1.20;;;30.30;36.50;;;;;;5018659;28;20068;-68
2022/07/18 12:40:54;;;;;;;5.80;1.17;;;30.30;36.20;;;;;;5015910;28;20468;-68
2022/07/18 12:43:30;;;;;;;2.77;0.93;;;30.00;36.50;;;;;;5014633;28;20041;-69
2022/07/18 12:45:57;;;;;;;3.13;1.00;;;29.70;36.80;;;;;;5009831;28;20123;-69
2022/07/18 12:48:23;;;;;;;3.30;1.20;;;29.50;37.70;;;;;;5018802;28;20055;-69
2022/07/18 12:51:02;;;;;;;3.07;1.10;;;29.40;38.50;;;;;;5019217;28;20056;-69
2022/07/18 12:53:30;;;;;;;2.80;0.97;;;29.30;38.50;;;;;;5030682;28;20056;-69